createdAt,value
2018-10-16T00:01:49.999Z,90.40
2018-10-16T00:04:18.075Z,90.40
2018-10-16T00:06:46.161Z,90.70
2018-10-16T00:09:14.236Z,90.50
2018-10-16T00:11:53.735Z,90.50
2018-10-16T00:14:21.811Z,90.60
2018-10-16T00:16:50.158Z,90.80
2018-10-16T00:19:18.238Z,90.70
2018-10-16T00:21:46.329Z,90.90
2018-10-16T00:24:14.402Z,90.90
2018-10-16T00:26:42.502Z,91.00
2018-10-16T00:29:10.582Z,90.80
2018-10-16T00:31:38.659Z,90.90
2018-10-16T00:34:07.247Z,91.00
2018-10-16T00:36:36.282Z,91.00
2018-10-16T00:39:05.618Z,91.00
2018-10-16T00:41:33.710Z,90.90
2018-10-16T00:44:01.786Z,90.90
2018-10-16T00:46:29.848Z,91.10
2018-10-16T00:48:57.979Z,91.10
2018-10-16T00:51:26.095Z,90.80
2018-10-16T00:53:54.186Z,90.80
2018-10-16T00:56:22.534Z,90.70
2018-10-16T00:58:50.694Z,90.70
2018-10-16T01:01:24.330Z,90.70
2018-10-16T01:03:52.470Z,90.70
2018-10-16T01:06:20.579Z,90.60
2018-10-16T01:08:48.731Z,90.40
2018-10-16T01:11:16.850Z,90.80
2018-10-16T01:13:45.226Z,90.90
2018-10-16T01:16:13.338Z,90.90
2018-10-16T01:18:41.742Z,90.80
2018-10-16T01:21:09.843Z,90.70
2018-10-16T01:23:37.995Z,90.70
2018-10-16T01:26:06.502Z,90.90
2018-10-16T01:28:34.604Z,90.70
2018-10-16T01:31:02.704Z,90.90
2018-10-16T01:33:30.811Z,90.70
2018-10-16T01:35:58.910Z,90.90
2018-10-16T01:38:27.030Z,90.80
2018-10-16T01:40:55.146Z,90.60
2018-10-16T01:43:23.274Z,90.60
2018-10-16T01:45:51.368Z,90.90
2018-10-16T01:48:19.479Z,91.00
2018-10-16T01:50:47.582Z,91.20
2018-10-16T01:53:15.674Z,90.70
2018-10-16T01:55:43.793Z,90.70
2018-10-16T01:58:11.891Z,91.10
2018-10-16T02:00:39.990Z,90.90
2018-10-16T02:03:08.451Z,91.00
2018-10-16T02:05:36.747Z,91.00
2018-10-16T02:08:05.246Z,91.00
2018-10-16T02:10:33.359Z,91.20
2018-10-16T02:13:01.654Z,91.40
2018-10-16T02:15:29.783Z,91.40
2018-10-16T02:17:57.914Z,91.50
2018-10-16T02:20:26.014Z,91.70
2018-10-16T02:22:54.102Z,91.80
2018-10-16T02:25:22.234Z,91.70
2018-10-16T02:27:50.313Z,91.60
2018-10-16T02:30:18.422Z,91.60
2018-10-16T02:32:46.549Z,91.90
2018-10-16T02:35:14.643Z,91.50
2018-10-16T02:37:42.747Z,91.50
2018-10-16T02:40:11.191Z,91.50
2018-10-16T02:42:40.064Z,91.50
2018-10-16T02:45:09.293Z,91.40
2018-10-16T02:47:37.478Z,91.20
2018-10-16T02:50:05.854Z,91.30
2018-10-16T02:52:33.966Z,91.40
2018-10-16T02:55:02.082Z,91.50
2018-10-16T02:57:30.174Z,91.40
2018-10-16T02:59:58.324Z,91.70
2018-10-16T03:02:26.455Z,91.40
2018-10-16T03:04:54.554Z,91.50
2018-10-16T03:07:22.686Z,91.40
2018-10-16T03:09:50.825Z,91.40
2018-10-16T03:12:18.945Z,91.30
2018-10-16T03:14:47.075Z,91.40
2018-10-16T03:17:15.194Z,91.40
2018-10-16T03:19:43.299Z,91.50
2018-10-16T03:22:11.407Z,91.50
2018-10-16T03:24:39.512Z,91.60
2018-10-16T03:27:07.807Z,91.50
2018-10-16T03:29:35.971Z,91.60
2018-10-16T03:32:04.717Z,91.60
2018-10-16T03:34:32.851Z,91.70
2018-10-16T03:37:00.971Z,91.50
2018-10-16T03:39:29.066Z,91.60
2018-10-16T03:41:57.166Z,91.50
2018-10-16T03:44:25.282Z,91.50
2018-10-16T03:46:53.406Z,91.40
2018-10-16T03:49:21.547Z,91.40
2018-10-16T03:51:49.702Z,91.10
2018-10-16T03:54:17.877Z,91.20
2018-10-16T03:56:46.113Z,91.10
2018-10-16T03:59:14.350Z,91.10
2018-10-16T04:01:42.490Z,91.20
2018-10-16T04:04:10.622Z,91.30
2018-10-16T04:06:38.903Z,91.40
2018-10-16T04:09:07.090Z,91.40
2018-10-16T04:11:35.301Z,91.50
2018-10-16T04:14:03.668Z,91.70
2018-10-16T04:16:31.693Z,91.50
2018-10-16T04:18:59.846Z,91.30
2018-10-16T04:21:33.394Z,91.30
2018-10-16T04:24:01.775Z,91.40
2018-10-16T04:26:30.334Z,91.50
2018-10-16T04:28:58.556Z,91.30
2018-10-16T04:31:26.656Z,91.40
2018-10-16T04:33:54.821Z,91.40
2018-10-16T04:36:22.927Z,91.50
2018-10-16T04:38:51.007Z,91.70
2018-10-16T04:41:19.098Z,91.50
2018-10-16T04:43:47.270Z,91.80
2018-10-16T04:46:15.430Z,91.40
2018-10-16T04:48:43.518Z,91.50
2018-10-16T04:51:11.635Z,91.30
2018-10-16T04:53:39.722Z,91.20
2018-10-16T04:56:07.878Z,91.00
2018-10-16T04:58:36.455Z,91.10
2018-10-16T05:01:04.570Z,91.00
2018-10-16T05:03:32.668Z,91.10
2018-10-16T05:06:00.826Z,91.00
2018-10-16T05:08:28.968Z,90.90
2018-10-16T05:10:57.075Z,90.90
2018-10-16T05:13:25.203Z,91.30
2018-10-16T05:15:53.318Z,90.90
2018-10-16T05:18:21.426Z,90.80
2018-10-16T05:20:49.544Z,91.00
2018-10-16T05:23:17.627Z,90.30
2018-10-16T05:25:45.758Z,90.00
2018-10-16T05:28:13.939Z,90.20
2018-10-16T05:30:42.035Z,90.40
2018-10-16T05:33:10.126Z,90.80
2018-10-16T05:35:38.215Z,90.80
2018-10-16T05:38:06.290Z,90.90
2018-10-16T05:40:34.388Z,90.80
2018-10-16T05:43:02.474Z,90.80
2018-10-16T05:45:33.078Z,90.80
2018-10-16T05:48:01.173Z,90.70
2018-10-16T05:50:29.297Z,90.70
2018-10-16T05:52:57.394Z,90.90
2018-10-16T05:55:25.530Z,90.80
2018-10-16T05:57:53.642Z,90.80
2018-10-16T06:00:42.321Z,91.00
2018-10-16T06:03:10.522Z,91.00
2018-10-16T06:05:38.730Z,91.60
2018-10-16T06:08:06.831Z,91.20
2018-10-16T06:10:35.230Z,91.40
2018-10-16T06:13:03.448Z,91.50
2018-10-16T06:15:31.584Z,91.70
2018-10-16T06:17:59.695Z,91.90
2018-10-16T06:20:27.794Z,91.80
2018-10-16T06:22:55.955Z,92.00
2018-10-16T06:25:24.073Z,91.90
2018-10-16T06:27:52.166Z,92.20
2018-10-16T06:30:20.346Z,92.10
2018-10-16T06:32:48.337Z,92.10
2018-10-16T06:35:16.419Z,92.30
2018-10-16T06:37:44.561Z,92.60
2018-10-16T06:40:12.658Z,92.20
2018-10-16T06:42:40.844Z,92.40
2018-10-16T06:45:10.026Z,92.60
2018-10-16T06:47:38.181Z,92.90
2018-10-16T06:50:07.768Z,92.90
2018-10-16T06:52:35.850Z,92.30
2018-10-16T06:55:04.118Z,92.90
2018-10-16T06:57:32.168Z,92.70
2018-10-16T07:00:00.327Z,93.00
2018-10-16T07:02:28.366Z,93.00
2018-10-16T07:05:03.071Z,93.00
2018-10-16T07:07:31.158Z,92.90
2018-10-16T07:09:59.241Z,92.80
2018-10-16T07:12:27.330Z,92.90
2018-10-16T07:14:55.453Z,93.40
2018-10-16T07:17:23.506Z,93.40
2018-10-16T07:19:51.584Z,93.40
2018-10-16T07:22:19.909Z,93.50
2018-10-16T07:24:48.086Z,93.70
2018-10-16T07:27:16.183Z,94.00
2018-10-16T07:29:44.290Z,93.30
2018-10-16T07:32:12.427Z,93.30
2018-10-16T07:34:40.528Z,92.80
2018-10-16T07:37:08.622Z,93.80
2018-10-16T07:39:36.750Z,93.60
2018-10-16T07:42:04.991Z,93.10
2018-10-16T07:44:33.110Z,92.60
2018-10-16T07:47:01.232Z,91.80
2018-10-16T07:49:29.341Z,91.70
2018-10-16T07:51:57.460Z,91.90
2018-10-16T07:54:25.594Z,90.90
2018-10-16T07:57:00.418Z,91.00
2018-10-16T07:59:28.511Z,91.80
2018-10-16T08:01:56.633Z,92.40
2018-10-16T08:04:24.751Z,92.30
2018-10-16T08:06:52.970Z,92.30
2018-10-16T08:09:21.171Z,91.20
2018-10-16T08:11:50.222Z,92.30
2018-10-16T08:14:19.334Z,91.70
2018-10-16T08:16:48.650Z,92.10
2018-10-16T08:19:16.777Z,90.30
2018-10-16T08:21:45.814Z,90.70
2018-10-16T08:24:13.933Z,91.90
2018-10-16T08:26:42.081Z,92.10
2018-10-16T08:29:10.235Z,91.60
2018-10-16T08:31:38.686Z,91.90
2018-10-16T08:34:07.136Z,91.50
2018-10-16T08:36:35.522Z,91.70
2018-10-16T08:39:14.479Z,91.60
2018-10-16T08:43:57.258Z,91.50
2018-10-16T08:46:36.770Z,92.10
2018-10-16T08:49:16.434Z,91.40
2018-10-16T08:51:50.820Z,91.60
2018-10-16T08:54:19.035Z,91.70
2018-10-16T08:56:47.177Z,91.90
2018-10-16T08:59:15.293Z,90.70
2018-10-16T09:01:43.406Z,91.40
2018-10-16T09:04:11.523Z,90.30
2018-10-16T09:06:39.729Z,90.50
2018-10-16T09:09:09.502Z,90.50
2018-10-16T09:11:37.614Z,90.40
2018-10-16T09:14:06.068Z,90.70
2018-10-16T09:16:34.099Z,90.40
2018-10-16T09:19:02.182Z,90.30
2018-10-16T09:21:30.285Z,87.70
2018-10-16T09:23:58.358Z,87.10
2018-10-16T09:26:26.447Z,89.60
2018-10-16T09:28:54.538Z,89.90
2018-10-16T09:31:22.621Z,88.70
2018-10-16T09:33:50.700Z,87.90
2018-10-16T09:36:18.863Z,88.80
2018-10-16T09:38:46.947Z,87.50
2018-10-16T09:41:15.044Z,86.10
2018-10-16T09:43:43.191Z,86.70
2018-10-16T09:46:11.275Z,85.30
2018-10-16T09:48:39.359Z,84.70
2018-10-16T09:51:07.462Z,85.70
2018-10-16T09:53:35.551Z,86.10
2018-10-16T09:56:03.630Z,85.70
2018-10-16T09:58:31.967Z,86.10
2018-10-16T10:01:05.607Z,86.10
2018-10-16T10:03:33.706Z,86.00
2018-10-16T10:06:01.782Z,86.50
2018-10-16T10:08:29.886Z,86.30
2018-10-16T10:10:58.068Z,85.40
2018-10-16T10:13:26.091Z,83.90
2018-10-16T10:15:54.203Z,83.10
2018-10-16T10:18:22.327Z,83.10
2018-10-16T10:20:50.426Z,80.90
2018-10-16T10:23:18.591Z,81.90
2018-10-16T10:25:46.647Z,81.10
2018-10-16T10:28:14.740Z,80.70
2018-10-16T10:30:42.852Z,79.00
2018-10-16T10:33:10.950Z,75.70
2018-10-16T10:35:39.106Z,76.60
2018-10-16T10:38:07.166Z,76.80
2018-10-16T10:40:35.275Z,70.70
2018-10-16T10:43:03.367Z,69.60
2018-10-16T10:45:31.486Z,73.60
2018-10-16T10:47:59.624Z,73.10
2018-10-16T10:50:27.818Z,71.30
2018-10-16T10:52:55.826Z,68.20
2018-10-16T10:55:23.946Z,69.60
2018-10-16T10:57:52.038Z,68.00
2018-10-16T11:00:20.154Z,67.40
2018-10-16T11:02:48.974Z,65.60
2018-10-16T11:05:17.068Z,61.20
2018-10-16T11:07:45.174Z,65.90
2018-10-16T11:10:14.087Z,64.40
2018-10-16T11:12:43.234Z,65.30
2018-10-16T11:15:11.420Z,64.00
2018-10-16T11:17:39.877Z,65.40
2018-10-16T11:20:09.551Z,64.90
2018-10-16T11:22:37.678Z,64.30
2018-10-16T11:25:06.775Z,64.20
2018-10-16T11:27:34.983Z,62.60
2018-10-16T11:30:03.114Z,62.30
2018-10-16T11:32:31.185Z,61.00
2018-10-16T11:34:59.274Z,61.20
2018-10-16T11:37:27.394Z,60.70
2018-10-16T11:39:55.490Z,62.40
2018-10-16T11:42:23.578Z,62.20
2018-10-16T11:44:51.705Z,63.10
2018-10-16T11:47:19.783Z,61.80
2018-10-16T11:49:47.882Z,60.00
2018-10-16T11:52:16.131Z,59.60
2018-10-16T11:54:44.219Z,56.70
2018-10-16T11:57:12.311Z,58.60
2018-10-16T11:59:40.440Z,56.10
2018-10-16T12:02:08.546Z,58.30
2018-10-16T12:04:36.602Z,56.50
2018-10-16T12:07:04.719Z,56.30
2018-10-16T12:09:32.776Z,56.40
2018-10-16T12:12:00.859Z,54.30
2018-10-16T12:14:28.951Z,54.60
2018-10-16T12:17:02.183Z,55.30
2018-10-16T12:19:48.091Z,55.80
2018-10-16T12:22:16.139Z,54.10
2018-10-16T12:24:44.278Z,54.60
2018-10-16T12:27:12.466Z,54.10
2018-10-16T12:29:40.548Z,55.30
2018-10-16T12:32:08.655Z,53.20
2018-10-16T12:34:36.768Z,54.90
2018-10-16T12:37:05.362Z,54.30
2018-10-16T12:39:33.534Z,53.30
2018-10-16T12:42:01.607Z,53.20
2018-10-16T12:44:29.663Z,53.60
2018-10-16T12:46:57.854Z,53.10
2018-10-16T12:49:25.974Z,52.50
2018-10-16T12:51:54.083Z,51.20
2018-10-16T12:54:22.205Z,50.20
2018-10-16T12:56:50.379Z,50.90
2018-10-16T12:59:18.408Z,50.40
2018-10-16T13:01:46.531Z,50.60
2018-10-16T13:04:14.638Z,46.60
2018-10-16T13:06:44.695Z,49.20
2018-10-16T13:09:13.162Z,49.10
2018-10-16T13:11:41.990Z,49.10
2018-10-16T13:14:10.163Z,45.30
2018-10-16T13:16:38.551Z,46.60
2018-10-16T13:19:06.670Z,47.70
2018-10-16T13:21:35.069Z,47.30
2018-10-16T13:24:03.302Z,46.60
2018-10-16T13:26:31.343Z,47.80
2018-10-16T13:28:59.475Z,43.40
2018-10-16T13:31:27.583Z,46.20
2018-10-16T13:33:55.736Z,46.30
2018-10-16T13:36:23.827Z,46.50
2018-10-16T13:38:51.992Z,46.50
2018-10-16T13:41:20.090Z,45.90
2018-10-16T13:43:48.190Z,45.30
2018-10-16T13:46:16.338Z,45.20
2018-10-16T13:48:44.382Z,45.00
2018-10-16T13:51:12.507Z,45.20
2018-10-16T13:53:40.695Z,45.10
2018-10-16T13:56:09.162Z,45.40
2018-10-16T13:58:37.162Z,45.40
2018-10-16T14:01:05.295Z,44.90
2018-10-16T14:03:33.398Z,44.50
2018-10-16T14:06:01.589Z,44.60
2018-10-16T14:08:29.659Z,44.20
2018-10-16T14:10:57.858Z,45.10
2018-10-16T14:13:25.991Z,44.80
2018-10-16T14:15:54.492Z,45.30
2018-10-16T14:18:22.528Z,44.90
2018-10-16T14:20:50.608Z,44.80
2018-10-16T14:23:18.733Z,45.20
2018-10-16T14:25:46.819Z,44.40
2018-10-16T14:28:14.970Z,44.60
2018-10-16T14:30:43.087Z,44.60
2018-10-16T14:33:11.578Z,45.00
2018-10-16T14:35:39.750Z,44.20
2018-10-16T14:38:07.907Z,44.30
2018-10-16T14:40:36.007Z,44.50
2018-10-16T14:43:04.148Z,44.80
2018-10-16T14:45:32.240Z,44.60
2018-10-16T14:48:00.435Z,45.80
2018-10-16T14:50:28.470Z,46.00
2018-10-16T14:52:56.574Z,47.30
2018-10-16T14:55:24.657Z,46.80
2018-10-16T14:57:52.749Z,47.10
2018-10-16T15:00:20.883Z,47.60
2018-10-16T15:02:48.962Z,47.50
2018-10-16T15:05:17.058Z,48.60
2018-10-16T15:07:45.149Z,48.10
2018-10-16T15:10:13.291Z,48.20
2018-10-16T15:12:41.321Z,48.60
2018-10-16T15:15:09.608Z,48.80
2018-10-16T15:17:37.679Z,49.20
2018-10-16T15:20:08.429Z,49.00
2018-10-16T15:22:36.459Z,49.30
2018-10-16T15:25:05.634Z,50.50
2018-10-16T15:27:33.863Z,50.10
2018-10-16T15:30:01.957Z,49.90
2018-10-16T15:32:30.032Z,50.20
2018-10-16T15:34:58.164Z,50.40
2018-10-16T15:37:26.254Z,50.80
2018-10-16T15:39:54.389Z,50.90
2018-10-16T15:42:22.682Z,50.80
2018-10-16T15:44:50.799Z,50.90
2018-10-16T15:47:18.949Z,51.00
2018-10-16T15:49:47.028Z,51.30
2018-10-16T15:52:15.258Z,52.00
2018-10-16T15:54:43.255Z,52.50
2018-10-16T15:57:11.502Z,51.60
2018-10-16T15:59:39.748Z,51.70
2018-10-16T16:02:07.905Z,52.60
2018-10-16T16:04:35.956Z,52.50
2018-10-16T16:07:04.055Z,53.50
2018-10-16T16:09:32.210Z,54.60
2018-10-16T16:12:00.460Z,53.90
2018-10-16T16:14:28.510Z,53.60
2018-10-16T16:16:56.780Z,54.70
2018-10-16T16:19:24.911Z,54.50
2018-10-16T16:21:53.022Z,54.10
2018-10-16T16:24:21.112Z,54.20
2018-10-16T16:26:49.227Z,54.90
2018-10-16T16:29:17.358Z,55.70
2018-10-16T16:31:45.479Z,55.90
2018-10-16T16:34:13.591Z,56.50
2018-10-16T16:36:41.759Z,57.10
2018-10-16T16:39:12.028Z,57.80
2018-10-16T16:41:40.122Z,58.80
2018-10-16T16:44:08.318Z,58.90
2018-10-16T16:46:36.451Z,59.50
2018-10-16T16:49:04.791Z,60.00
2018-10-16T16:51:32.937Z,60.80
2018-10-16T16:54:01.100Z,60.80
2018-10-16T16:56:29.219Z,61.90
2018-10-16T16:58:57.418Z,62.10
2018-10-16T17:01:25.813Z,62.40
2018-10-16T17:03:53.932Z,62.90
2018-10-16T17:06:22.027Z,64.40
2018-10-16T17:08:50.202Z,65.00
2018-10-16T17:11:18.388Z,65.10
2018-10-16T17:13:46.495Z,66.40
2018-10-16T17:16:14.636Z,66.40
2018-10-16T17:18:42.744Z,66.80
2018-10-16T17:21:10.847Z,66.40
2018-10-16T17:23:39.272Z,66.50
2018-10-16T17:26:08.009Z,66.60
2018-10-16T17:28:36.003Z,67.30
2018-10-16T17:31:04.240Z,67.90
2018-10-16T17:33:32.407Z,67.80
2018-10-16T17:36:00.562Z,68.90
2018-10-16T17:38:28.689Z,69.90
2018-10-16T17:40:56.801Z,70.00
2018-10-16T17:43:24.911Z,70.60
2018-10-16T17:45:53.046Z,70.20
2018-10-16T17:48:21.148Z,70.80
2018-10-16T17:50:49.251Z,70.90
2018-10-16T17:53:17.358Z,71.90
2018-10-16T17:55:45.470Z,71.50
2018-10-16T17:58:13.587Z,71.80
2018-10-16T18:00:41.704Z,73.20
2018-10-16T18:03:09.988Z,73.40
2018-10-16T18:05:37.972Z,73.60
2018-10-16T18:08:06.095Z,73.90
2018-10-16T18:10:34.218Z,74.40
2018-10-16T18:13:02.516Z,74.20
2018-10-16T18:15:30.710Z,75.10
2018-10-16T18:17:58.884Z,75.60
2018-10-16T18:20:26.979Z,75.00
2018-10-16T18:22:55.078Z,76.10
2018-10-16T18:25:23.286Z,76.30
2018-10-16T18:27:51.391Z,76.00
2018-10-16T18:30:19.518Z,76.50
2018-10-16T18:32:47.683Z,77.10
2018-10-16T18:35:15.802Z,76.90
2018-10-16T18:37:44.126Z,77.90
2018-10-16T18:40:12.810Z,77.80
2018-10-16T18:42:41.287Z,79.20
2018-10-16T18:45:10.623Z,78.30
2018-10-16T18:47:38.757Z,78.80
2018-10-16T18:50:07.810Z,79.10
2018-10-16T18:52:35.904Z,79.50
2018-10-16T18:55:04.637Z,79.90
2018-10-16T18:57:32.738Z,79.90
2018-10-16T19:00:00.862Z,81.20
2018-10-16T19:02:29.291Z,81.20
2018-10-16T19:04:57.472Z,81.20
2018-10-16T19:07:25.602Z,80.40
2018-10-16T19:09:53.695Z,80.40
2018-10-16T19:12:21.795Z,81.80
2018-10-16T19:14:49.882Z,81.50
2018-10-16T19:17:17.971Z,81.60
2018-10-16T19:19:46.858Z,82.20
2018-10-16T19:22:14.947Z,81.30
2018-10-16T19:24:43.030Z,81.90
2018-10-16T19:27:11.305Z,82.60
2018-10-16T19:29:39.410Z,82.10
2018-10-16T19:32:07.591Z,82.50
2018-10-16T19:34:35.702Z,82.70
2018-10-16T19:37:03.825Z,82.90
2018-10-16T19:39:31.978Z,83.40
2018-10-16T19:42:00.088Z,83.10
2018-10-16T19:44:28.198Z,83.40
2018-10-16T19:46:56.306Z,83.60
2018-10-16T19:49:24.391Z,84.00
2018-10-16T19:51:52.755Z,83.50
2018-10-16T19:54:20.823Z,83.90
2018-10-16T19:56:48.931Z,84.40
2018-10-16T19:59:17.034Z,84.50
2018-10-16T20:01:45.126Z,84.00
2018-10-16T20:04:13.224Z,84.00
2018-10-16T20:06:41.343Z,83.90
2018-10-16T20:09:10.763Z,84.30
2018-10-16T20:11:38.847Z,84.80
2018-10-16T20:14:06.991Z,85.00
2018-10-16T20:16:35.058Z,85.00
2018-10-16T20:19:03.202Z,85.00
2018-10-16T20:21:31.297Z,85.30
2018-10-16T20:23:59.376Z,85.60
2018-10-16T20:26:27.456Z,85.40
2018-10-16T20:28:55.562Z,85.80
2018-10-16T20:31:23.688Z,86.10
2018-10-16T20:33:51.886Z,86.00
2018-10-16T20:36:20.290Z,86.00
2018-10-16T20:38:48.330Z,87.00
2018-10-16T20:41:16.500Z,86.70
2018-10-16T20:43:44.601Z,86.40
2018-10-16T20:46:12.674Z,87.30
2018-10-16T20:48:40.774Z,87.70
2018-10-16T20:51:08.865Z,87.50
2018-10-16T20:53:36.949Z,88.10
2018-10-16T20:56:05.269Z,87.60
2018-10-16T20:58:33.366Z,87.30
2018-10-16T21:01:01.675Z,87.30
2018-10-16T21:03:29.742Z,88.20
2018-10-16T21:05:57.996Z,87.70
2018-10-16T21:08:25.939Z,87.80
2018-10-16T21:10:54.118Z,87.60
2018-10-16T21:13:22.227Z,87.70
2018-10-16T21:15:50.290Z,88.20
2018-10-16T21:18:18.410Z,88.20
2018-10-16T21:20:46.810Z,88.10
2018-10-16T21:23:14.970Z,87.90
2018-10-16T21:25:43.026Z,88.00
2018-10-16T21:28:11.147Z,87.80
2018-10-16T21:30:39.254Z,87.90
2018-10-16T21:33:07.362Z,88.50
2018-10-16T21:35:35.482Z,88.40
2018-10-16T21:38:03.593Z,88.70
2018-10-16T21:40:31.771Z,88.90
2018-10-16T21:43:00.002Z,89.00
2018-10-16T21:45:28.052Z,88.70
2018-10-16T21:47:56.169Z,88.70
2018-10-16T21:50:24.258Z,89.10
2018-10-16T21:52:52.345Z,89.40
2018-10-16T21:55:20.430Z,89.60
2018-10-16T21:57:48.517Z,89.40
2018-10-16T22:00:22.142Z,89.60
2018-10-16T22:02:50.817Z,89.40
2018-10-16T22:05:21.733Z,89.80
2018-10-16T22:07:51.256Z,89.70
2018-10-16T22:10:19.613Z,90.00
2018-10-16T22:12:48.307Z,90.00
2018-10-16T22:15:17.078Z,89.80
2018-10-16T22:17:45.202Z,89.90
2018-10-16T22:20:13.746Z,89.80
2018-10-16T22:22:42.257Z,89.80
2018-10-16T22:25:10.435Z,89.50
2018-10-16T22:27:38.469Z,89.80
2018-10-16T22:30:07.206Z,89.80
2018-10-16T22:32:35.296Z,89.80
2018-10-16T22:35:03.487Z,89.80
2018-10-16T22:37:31.505Z,89.80
2018-10-16T22:39:59.602Z,89.90
2018-10-16T22:42:27.722Z,89.50
2018-10-16T22:44:55.803Z,89.40
2018-10-16T22:47:23.878Z,89.30
2018-10-16T22:49:52.038Z,89.20
2018-10-16T22:52:20.142Z,89.40
2018-10-16T22:54:48.318Z,89.90
2018-10-16T22:57:16.437Z,90.10
2018-10-16T22:59:44.538Z,90.20
2018-10-16T23:02:12.698Z,90.20
2018-10-16T23:04:40.815Z,90.20
2018-10-16T23:07:08.946Z,90.30
2018-10-16T23:09:37.047Z,90.40
2018-10-16T23:12:05.672Z,90.20
2018-10-16T23:14:33.788Z,90.40
2018-10-16T23:17:02.183Z,90.40
2018-10-16T23:19:30.314Z,90.50
2018-10-16T23:21:58.422Z,90.30
2018-10-16T23:24:26.583Z,90.20
2018-10-16T23:26:54.725Z,90.10
2018-10-16T23:29:22.834Z,90.30
2018-10-16T23:31:50.958Z,90.20
2018-10-16T23:34:19.085Z,90.20
2018-10-16T23:36:47.205Z,90.10
2018-10-16T23:39:15.332Z,90.00
2018-10-16T23:41:43.886Z,89.90
2018-10-16T23:44:12.462Z,89.70
2018-10-16T23:46:40.564Z,89.90
2018-10-16T23:49:09.534Z,90.00
2018-10-16T23:51:37.674Z,90.40
2018-10-16T23:54:06.290Z,90.60
2018-10-16T23:56:34.405Z,90.70
2018-10-16T23:59:02.631Z,90.70
